Terminal Aerodrome Forecast
Issued by NWS

Home | Current Version | Previous Version | Text Only | Print | Product List | Glossary On
Versions: 1 2 3 4 5 6 7 8 9 10 11 12 13 14 15
000
FTUS44 KBMX 192300
TAFANB
TAF
KANB 192327Z 2000/2024 07003KT P6SM FEW250
     FM201000 06005KT 5SM BR BKN025
     FM201500 08007KT P6SM SCT025 OVC060=

USA.gov is the U.S. government's official web portal to all federal, state and local government web resources and services.